createdAt,value
2023-03-10T00:02:14.482Z,12.38
2023-03-10T00:04:45.698Z,15.57
2023-03-10T00:07:15.582Z,14.38
2023-03-10T00:09:45.584Z,13.93
2023-03-10T00:12:15.292Z,13.32
2023-03-10T00:14:45.141Z,14.15
2023-03-10T00:17:15.457Z,13.75
2023-03-10T00:19:46.980Z,14.65
2023-03-10T00:22:16.277Z,11.70
2023-03-10T00:24:45.904Z,17.48
2023-03-10T00:27:15.265Z,12.88
2023-03-10T00:29:45.067Z,13.88
2023-03-10T00:32:14.699Z,10.00
2023-03-10T00:34:45.982Z,12.32
2023-03-10T00:37:15.676Z,16.38
2023-03-10T00:39:45.361Z,11.85
2023-03-10T00:42:14.773Z,11.73
2023-03-10T00:44:44.643Z,13.00
2023-03-10T00:47:14.079Z,10.15
2023-03-10T00:49:43.824Z,11.55
2023-03-10T00:52:14.738Z,10.40
2023-03-10T00:54:44.458Z,16.02
2023-03-10T00:57:13.967Z,13.02
2023-03-10T00:59:50.344Z,17.65
2023-03-10T01:02:20.624Z,10.93
2023-03-10T01:04:51.099Z,10.68
2023-03-10T01:07:21.945Z,12.80
2023-03-10T01:09:51.640Z,9.50
2023-03-10T01:12:21.198Z,10.02
2023-03-10T01:14:51.033Z,7.97
2023-03-10T01:17:20.549Z,8.55
2023-03-10T01:19:51.258Z,8.02
2023-03-10T01:22:22.253Z,16.95
2023-03-10T01:24:52.664Z,8.55
2023-03-10T01:27:22.081Z,10.30
2023-03-10T01:29:52.068Z,9.05
2023-03-10T01:32:22.450Z,7.80
2023-03-10T01:34:52.129Z,7.57
2023-03-10T01:37:22.893Z,10.02
2023-03-10T01:39:52.690Z,7.97
2023-03-10T01:42:21.953Z,10.75
2023-03-10T01:45:07.445Z,7.22
2023-03-10T01:47:37.219Z,5.57
2023-03-10T01:50:10.909Z,9.37
2023-03-10T01:52:44.673Z,7.68
2023-03-10T01:55:17.798Z,6.05
2023-03-10T01:57:51.540Z,10.73
2023-03-10T02:00:22.644Z,8.70
2023-03-10T02:02:58.537Z,6.88
2023-03-10T02:05:29.860Z,6.55
2023-03-10T02:08:02.119Z,9.55
2023-03-10T02:10:32.162Z,11.40
2023-03-10T02:13:01.424Z,12.77
2023-03-10T02:15:32.261Z,7.80
2023-03-10T02:18:04.235Z,7.65
2023-03-10T02:20:42.409Z,9.27
2023-03-10T02:23:17.807Z,8.40
2023-03-10T02:25:52.974Z,6.57
2023-03-10T02:28:24.449Z,13.93
2023-03-10T02:30:55.413Z,10.23
2023-03-10T02:33:27.341Z,8.00
2023-03-10T02:36:03.985Z,9.35
2023-03-10T02:38:33.317Z,8.73
2023-03-10T02:41:05.300Z,9.68
2023-03-10T02:43:36.841Z,9.27
2023-03-10T02:46:09.022Z,7.45
2023-03-10T02:48:40.271Z,6.20
2023-03-10T02:51:13.228Z,7.70
2023-03-10T02:53:43.124Z,7.43
2023-03-10T02:56:13.108Z,9.75
2023-03-10T02:58:44.149Z,7.55
2023-03-10T03:01:14.875Z,6.03
2023-03-10T03:03:44.511Z,9.85
2023-03-10T03:06:15.623Z,7.00
2023-03-10T03:08:45.084Z,8.85
2023-03-10T03:11:16.110Z,7.80
2023-03-10T03:13:47.112Z,9.05
2023-03-10T03:16:17.222Z,7.63
2023-03-10T03:18:47.329Z,10.02
2023-03-10T03:21:17.853Z,9.63
2023-03-10T03:23:48.017Z,5.13
2023-03-10T03:26:20.338Z,8.15
2023-03-10T03:28:52.461Z,9.10
2023-03-10T03:31:24.743Z,6.85
2023-03-10T03:33:54.047Z,10.50
2023-03-10T03:36:24.786Z,8.75
2023-03-10T03:38:54.309Z,8.35
2023-03-10T03:41:23.962Z,8.98
2023-03-10T03:43:54.819Z,7.25
2023-03-10T03:46:24.541Z,8.23
2023-03-10T03:48:53.983Z,6.40
2023-03-10T03:51:23.678Z,7.70
2023-03-10T03:53:53.053Z,11.70
2023-03-10T03:56:22.936Z,11.52
2023-03-10T03:58:53.762Z,11.48
2023-03-10T04:01:23.429Z,12.85
2023-03-10T04:03:53.598Z,10.93
2023-03-10T04:06:23.588Z,12.25
2023-03-10T04:08:53.656Z,9.82
2023-03-10T04:11:23.319Z,14.55
2023-03-10T04:13:54.653Z,11.45
2023-03-10T04:16:24.318Z,11.25
2023-03-10T04:18:53.752Z,14.20
2023-03-10T04:21:23.461Z,14.05
2023-03-10T04:23:52.936Z,14.30
2023-03-10T04:26:22.635Z,11.77
2023-03-10T04:28:52.135Z,10.85
2023-03-10T04:31:23.254Z,15.07
2023-03-10T04:33:52.861Z,13.32
2023-03-10T04:36:23.242Z,12.55
2023-03-10T04:38:52.551Z,16.10
2023-03-10T04:41:22.449Z,13.70
2023-03-10T04:43:52.002Z,13.63
2023-03-10T04:46:23.224Z,11.20
2023-03-10T04:48:53.373Z,16.80
2023-03-10T04:51:23.109Z,11.40
2023-03-10T04:53:52.678Z,17.30
2023-03-10T04:56:22.701Z,13.88
2023-03-10T04:58:52.080Z,15.00
2023-03-10T05:01:23.880Z,14.43
2023-03-10T05:03:53.344Z,13.93
2023-03-10T05:06:24.208Z,14.85
2023-03-10T05:08:53.857Z,16.58
2023-03-10T05:11:24.634Z,12.83
2023-03-10T05:13:54.202Z,15.93
2023-03-10T05:16:25.697Z,12.98
2023-03-10T05:18:55.404Z,12.27
2023-03-10T05:21:25.273Z,13.75
2023-03-10T05:23:55.132Z,10.25
2023-03-10T05:26:25.250Z,14.80
2023-03-10T05:28:54.907Z,11.88
2023-03-10T05:31:27.504Z,15.15
2023-03-10T05:33:56.917Z,17.60
2023-03-10T05:36:27.215Z,13.80
2023-03-10T05:38:56.595Z,15.25
2023-03-10T05:41:26.313Z,15.65
2023-03-10T05:43:55.616Z,10.57
2023-03-10T05:46:27.137Z,19.00
2023-03-10T05:48:57.623Z,14.48
2023-03-10T05:51:27.441Z,17.48
2023-03-10T05:53:56.802Z,10.77
2023-03-10T05:56:26.968Z,14.27
2023-03-10T05:58:56.583Z,14.00
2023-03-10T06:01:27.804Z,15.25
2023-03-10T06:03:57.182Z,15.90
2023-03-10T06:06:27.325Z,13.57
2023-03-10T06:08:56.897Z,12.75
2023-03-10T06:11:26.834Z,12.73
2023-03-10T06:13:56.322Z,12.50
2023-03-10T06:16:27.804Z,15.20
2023-03-10T06:18:58.386Z,14.05
2023-03-10T06:21:29.805Z,13.88
2023-03-10T06:26:29.620Z,11.23
2023-03-10T06:28:59.032Z,17.85
2023-03-10T06:31:30.732Z,12.48
2023-03-10T06:34:02.068Z,16.60
2023-03-10T06:36:34.005Z,13.68
2023-03-10T06:39:03.463Z,12.05
2023-03-10T06:41:33.643Z,17.08
2023-03-10T06:44:03.237Z,17.50
2023-03-10T06:46:34.410Z,21.10
2023-03-10T06:49:03.922Z,13.93
2023-03-10T06:51:33.767Z,14.90
2023-03-10T06:54:03.511Z,12.75
2023-03-10T06:56:33.904Z,12.77
2023-03-10T06:59:03.703Z,15.33
2023-03-10T07:01:36.120Z,17.33
2023-03-10T07:04:05.588Z,13.90
2023-03-10T07:06:36.267Z,13.43
2023-03-10T07:09:06.455Z,14.10
2023-03-10T07:11:36.614Z,14.85
2023-03-10T07:14:05.930Z,16.63
2023-03-10T07:16:37.125Z,16.00
2023-03-10T07:19:06.505Z,15.75
2023-03-10T07:21:36.346Z,16.98
2023-03-10T07:24:06.193Z,13.55
2023-03-10T07:26:36.057Z,15.18
2023-03-10T07:29:05.590Z,17.67
2023-03-10T07:31:37.619Z,14.35
2023-03-10T07:34:06.938Z,18.42
2023-03-10T07:36:37.179Z,14.77
2023-03-10T07:39:06.529Z,15.25
2023-03-10T07:41:36.822Z,16.55
2023-03-10T07:44:06.587Z,16.38
2023-03-10T07:46:38.294Z,13.53
2023-03-10T07:49:07.997Z,23.05
2023-03-10T07:51:38.328Z,14.27
2023-03-10T07:54:07.716Z,14.93
2023-03-10T07:56:37.369Z,13.57
2023-03-10T07:59:07.787Z,17.80
2023-03-10T08:01:39.152Z,15.38
2023-03-10T08:06:38.227Z,14.55
2023-03-10T08:09:07.787Z,14.95
2023-03-10T08:11:37.960Z,13.98
2023-03-10T08:14:07.433Z,13.40
2023-03-10T08:16:39.502Z,11.40
2023-03-10T08:19:09.674Z,12.88
2023-03-10T08:21:39.686Z,14.65
2023-03-10T08:24:09.681Z,10.77
2023-03-10T08:26:40.026Z,13.52
2023-03-10T08:29:09.362Z,10.93
2023-03-10T08:31:41.177Z,13.95
2023-03-10T08:34:11.028Z,15.55
2023-03-10T08:36:41.326Z,16.23
2023-03-10T08:39:12.863Z,11.10
2023-03-10T08:41:46.951Z,11.80
2023-03-10T08:44:18.096Z,17.52
2023-03-10T08:46:51.201Z,25.13
2023-03-10T08:49:22.097Z,15.10
2023-03-10T08:51:51.772Z,16.30
2023-03-10T08:54:22.478Z,12.10
2023-03-10T08:59:22.137Z,12.15
2023-03-10T09:01:53.398Z,12.43
2023-03-10T09:04:23.449Z,12.63
2023-03-10T09:06:53.294Z,9.52
2023-03-10T09:09:23.391Z,11.15
2023-03-10T09:11:53.062Z,15.10
2023-03-10T09:14:22.510Z,13.18
2023-03-10T09:16:54.190Z,12.07
2023-03-10T09:19:23.649Z,12.35
2023-03-10T09:21:53.398Z,12.70
2023-03-10T09:24:23.038Z,9.55
2023-03-10T09:26:52.734Z,11.73
2023-03-10T09:29:36.495Z,9.82
2023-03-10T09:32:13.846Z,11.65
2023-03-10T09:34:43.216Z,13.30
2023-03-10T09:37:13.395Z,14.35
2023-03-10T09:39:43.398Z,13.38
2023-03-10T09:42:38.804Z,10.27
2023-03-10T09:45:26.900Z,8.75
2023-03-10T09:48:17.473Z,11.10
2023-03-10T09:50:49.245Z,9.02
2023-03-10T09:53:36.209Z,13.43
2023-03-10T09:56:12.813Z,11.40
2023-03-10T09:58:45.141Z,11.43
2023-03-10T10:01:19.010Z,10.60
2023-03-10T10:03:53.563Z,11.57
2023-03-10T10:06:28.446Z,13.07
2023-03-10T10:09:04.950Z,14.25
2023-03-10T10:11:36.983Z,11.02
2023-03-10T10:14:30.863Z,14.52
2023-03-10T10:17:10.326Z,11.32
2023-03-10T10:19:41.553Z,11.10
2023-03-10T10:22:17.768Z,10.02
2023-03-10T10:25:02.508Z,11.35
2023-03-10T10:27:33.833Z,10.13
2023-03-10T10:30:29.174Z,11.45
2023-03-10T10:33:00.421Z,13.50
2023-03-10T10:35:33.613Z,10.65
2023-03-10T10:38:06.260Z,11.95
2023-03-10T10:40:37.816Z,13.80
2023-03-10T10:43:08.063Z,13.57
2023-03-10T10:45:39.515Z,10.77
2023-03-10T10:50:55.355Z,8.68
2023-03-10T10:53:29.127Z,11.65
2023-03-10T10:56:04.837Z,13.25
2023-03-10T10:58:36.168Z,8.10
2023-03-10T11:01:08.174Z,10.10
2023-03-10T11:03:39.634Z,9.23
2023-03-10T11:06:24.774Z,8.68
2023-03-10T11:09:04.662Z,8.05
2023-03-10T11:11:39.721Z,9.03
2023-03-10T11:14:22.767Z,8.77
2023-03-10T11:17:00.239Z,7.80
2023-03-10T11:19:38.670Z,11.70
2023-03-10T11:22:40.815Z,7.97
2023-03-10T11:25:23.330Z,9.25
2023-03-10T11:28:03.194Z,9.23
2023-03-10T11:30:35.102Z,8.80
2023-03-10T11:33:17.325Z,6.68
2023-03-10T11:35:50.140Z,7.55
2023-03-10T11:38:38.087Z,14.40
2023-03-10T11:41:12.066Z,10.75
2023-03-10T11:43:56.389Z,9.05
2023-03-10T11:46:30.921Z,7.93
2023-03-10T11:49:08.375Z,10.30
2023-03-10T11:51:40.989Z,7.40
2023-03-10T11:54:18.617Z,8.60
2023-03-10T11:56:49.280Z,10.90
2023-03-10T12:01:54.768Z,8.65
2023-03-10T12:04:28.887Z,8.23
2023-03-10T12:07:03.910Z,9.23
2023-03-10T12:09:42.553Z,6.82
2023-03-10T12:12:17.748Z,11.80
2023-03-10T12:14:48.432Z,7.55
2023-03-10T12:17:19.832Z,10.27
2023-03-10T12:20:25.747Z,10.75
2023-03-10T12:22:55.457Z,8.35
2023-03-10T12:25:49.443Z,5.50
2023-03-10T12:28:28.190Z,9.70
2023-03-10T12:30:59.553Z,9.25
2023-03-10T12:36:27.608Z,9.30
2023-03-10T12:38:58.994Z,8.20
2023-03-10T12:41:46.354Z,7.78
2023-03-10T12:44:52.227Z,7.03
2023-03-10T12:47:37.128Z,6.93
2023-03-10T12:50:31.546Z,8.02
2023-03-10T12:53:08.696Z,6.43
2023-03-10T12:55:38.680Z,6.15
2023-03-10T12:58:20.115Z,4.70
2023-03-10T13:03:35.530Z,6.95
2023-03-10T13:06:08.294Z,5.60
2023-03-10T13:08:44.315Z,7.10
2023-03-10T13:11:25.611Z,6.03
2023-03-10T13:14:00.798Z,7.20
2023-03-10T13:16:30.776Z,5.88
2023-03-10T13:19:02.253Z,5.35
2023-03-10T13:21:33.757Z,5.40
2023-03-10T13:24:05.493Z,6.35
2023-03-10T13:26:34.858Z,4.93
2023-03-10T13:29:05.995Z,8.10
2023-03-10T13:31:36.255Z,5.85
2023-03-10T13:34:15.051Z,8.20
2023-03-10T13:36:44.646Z,6.38
2023-03-10T13:39:22.367Z,8.52
2023-03-10T13:41:56.156Z,5.57
2023-03-10T13:44:29.255Z,7.20
2023-03-10T13:47:01.038Z,4.65
2023-03-10T13:49:34.041Z,5.97
2023-03-10T13:52:05.456Z,7.43
2023-03-10T13:54:36.157Z,4.90
2023-03-10T13:57:13.098Z,7.97
2023-03-10T13:59:44.581Z,5.60
2023-03-10T14:04:49.878Z,8.70
2023-03-10T14:07:20.886Z,6.40
2023-03-10T14:10:06.515Z,8.30
2023-03-10T14:12:40.283Z,7.50
2023-03-10T14:15:25.270Z,9.20
2023-03-10T14:18:15.194Z,8.40
2023-03-10T14:20:46.326Z,12.83
2023-03-10T14:23:39.134Z,10.70
2023-03-10T14:26:16.573Z,14.98
2023-03-10T14:28:46.174Z,7.47
2023-03-10T14:31:23.435Z,6.22
2023-03-10T14:33:53.354Z,8.15
2023-03-10T14:36:25.204Z,6.87
2023-03-10T14:38:54.581Z,7.82
2023-03-10T14:41:26.657Z,6.05
2023-03-10T14:43:56.583Z,5.55
2023-03-10T14:46:28.099Z,7.95
2023-03-10T14:48:57.854Z,8.05
2023-03-10T14:51:35.457Z,8.40
2023-03-10T14:54:06.030Z,5.95
2023-03-10T14:56:35.838Z,10.48
2023-03-10T14:59:06.960Z,8.98
2023-03-10T15:01:38.913Z,8.82
2023-03-10T15:04:10.975Z,12.07
2023-03-10T15:06:41.077Z,7.53
2023-03-10T15:09:10.799Z,10.02
2023-03-10T15:11:41.379Z,10.98
2023-03-10T15:14:15.670Z,8.35
2023-03-10T15:16:47.418Z,7.30
2023-03-10T15:19:21.459Z,7.85
2023-03-10T15:21:51.366Z,8.10
2023-03-10T15:24:21.248Z,7.80
2023-03-10T15:26:51.193Z,6.97
2023-03-10T15:29:23.812Z,7.93
2023-03-10T15:31:54.971Z,7.93
2023-03-10T15:34:24.645Z,7.30
2023-03-10T15:36:56.685Z,8.07
2023-03-10T15:39:31.939Z,7.18
2023-03-10T15:42:02.350Z,7.30
2023-03-10T15:44:31.725Z,6.50
2023-03-10T15:47:03.318Z,7.10
2023-03-10T15:49:32.700Z,7.55
2023-03-10T15:52:03.525Z,9.05
2023-03-10T15:54:35.058Z,6.70
2023-03-10T15:57:04.750Z,7.43
2023-03-10T15:59:36.386Z,10.07
2023-03-10T16:02:07.926Z,9.73
2023-03-10T16:04:37.457Z,9.27
2023-03-10T16:07:07.677Z,6.97
2023-03-10T16:09:37.111Z,10.40
2023-03-10T16:12:07.692Z,8.85
2023-03-10T16:14:37.017Z,11.27
2023-03-10T16:17:08.428Z,10.07
2023-03-10T16:19:37.706Z,10.35
2023-03-10T16:22:07.602Z,11.68
2023-03-10T16:24:36.933Z,9.63
2023-03-10T16:27:06.743Z,10.13
2023-03-10T16:29:37.895Z,15.05
2023-03-10T16:32:12.284Z,10.38
2023-03-10T16:34:42.239Z,8.43
2023-03-10T16:37:11.929Z,10.38
2023-03-10T16:39:42.248Z,9.65
2023-03-10T16:42:12.130Z,14.45
2023-03-10T16:44:41.423Z,12.40
2023-03-10T16:47:13.118Z,15.43
2023-03-10T16:49:42.580Z,14.10
2023-03-10T16:52:12.805Z,11.90
2023-03-10T16:54:42.165Z,18.50
2023-03-10T16:57:12.527Z,17.60
2023-03-10T16:59:41.998Z,13.40
2023-03-10T17:02:17.087Z,14.32
2023-03-10T17:04:47.380Z,15.63
2023-03-10T17:07:17.206Z,12.48
2023-03-10T17:09:46.718Z,9.20
2023-03-10T17:12:16.563Z,13.63
2023-03-10T17:14:46.095Z,13.65
2023-03-10T17:17:17.784Z,13.37
2023-03-10T17:22:17.858Z,11.57
2023-03-10T17:24:47.884Z,13.23
2023-03-10T17:27:17.795Z,10.70
2023-03-10T17:29:47.410Z,13.68
2023-03-10T17:32:19.051Z,12.52
2023-03-10T17:34:52.522Z,15.63
2023-03-10T17:37:23.089Z,20.17
2023-03-10T17:39:52.560Z,14.85
2023-03-10T17:42:22.843Z,12.43
2023-03-10T17:44:57.305Z,16.40
2023-03-10T17:47:42.948Z,15.20
2023-03-10T17:50:14.177Z,14.70
2023-03-10T17:52:43.710Z,12.98
2023-03-10T17:55:13.966Z,14.50
2023-03-10T17:57:43.486Z,18.30
2023-03-10T18:00:14.650Z,18.67
2023-03-10T18:02:45.582Z,17.33
2023-03-10T18:05:16.417Z,17.65
2023-03-10T18:07:46.352Z,15.57
2023-03-10T18:10:16.799Z,17.88
2023-03-10T18:12:46.346Z,14.10
2023-03-10T18:15:16.477Z,14.48
2023-03-10T18:17:47.881Z,12.48
2023-03-10T18:20:17.771Z,13.10
2023-03-10T18:22:47.077Z,14.13
2023-03-10T18:25:17.689Z,15.00
2023-03-10T18:27:47.374Z,15.23
2023-03-10T18:30:17.771Z,14.13
2023-03-10T18:32:48.732Z,13.32
2023-03-10T18:35:19.030Z,17.33
2023-03-10T18:37:48.485Z,13.43
2023-03-10T18:40:18.786Z,15.70
2023-03-10T18:42:48.902Z,14.40
2023-03-10T18:45:19.118Z,12.65
2023-03-10T18:47:50.117Z,12.95
2023-03-10T18:50:20.284Z,15.18
2023-03-10T18:52:49.695Z,15.38
2023-03-10T18:55:20.222Z,12.68
2023-03-10T18:57:49.577Z,15.00
2023-03-10T19:00:21.732Z,11.27
2023-03-10T19:02:54.999Z,11.25
2023-03-10T19:05:24.885Z,13.35
2023-03-10T19:07:54.326Z,14.02
2023-03-10T19:10:24.457Z,13.07
2023-03-10T19:12:53.803Z,14.50
2023-03-10T19:15:24.061Z,13.13
2023-03-10T19:17:55.061Z,14.30
2023-03-10T19:20:24.690Z,20.98
2023-03-10T19:22:54.101Z,20.52
2023-03-10T19:25:25.120Z,12.93
2023-03-10T19:27:54.603Z,14.35
2023-03-10T19:30:25.116Z,14.90
2023-03-10T19:32:56.790Z,13.02
2023-03-10T19:35:27.452Z,12.23
2023-03-10T19:37:57.115Z,14.27
2023-03-10T19:40:27.012Z,17.53
2023-03-10T19:42:56.553Z,11.80
2023-03-10T19:45:26.541Z,55.17
2023-03-10T19:47:59.404Z,14.48
2023-03-10T19:50:29.368Z,13.27
2023-03-10T19:52:58.818Z,14.23
2023-03-10T19:55:30.028Z,14.68
2023-03-10T19:57:59.343Z,14.25
2023-03-10T20:00:35.909Z,16.05
2023-03-10T20:03:06.982Z,16.23
2023-03-10T20:05:36.877Z,14.05
2023-03-10T20:08:06.803Z,16.83
2023-03-10T20:10:36.802Z,17.48
2023-03-10T20:13:06.409Z,16.90
2023-03-10T20:15:36.213Z,15.63
2023-03-10T20:18:07.527Z,22.90
2023-03-10T20:20:37.272Z,16.38
2023-03-10T20:23:06.575Z,20.83
2023-03-10T20:25:36.849Z,19.45
2023-03-10T20:28:06.156Z,20.80
2023-03-10T20:30:37.849Z,20.50
2023-03-10T20:33:09.104Z,15.73
2023-03-10T20:35:38.861Z,22.52
2023-03-10T20:38:08.159Z,20.15
2023-03-10T20:40:38.895Z,18.17
2023-03-10T20:43:08.853Z,41.88
2023-03-10T20:45:39.789Z,23.92
2023-03-10T20:48:11.027Z,22.83
2023-03-10T20:50:40.753Z,21.88
2023-03-10T20:53:10.190Z,17.98
2023-03-10T20:55:40.439Z,21.55
2023-03-10T20:58:10.737Z,20.58
2023-03-10T21:00:40.717Z,22.10
2023-03-10T21:03:11.547Z,18.63
2023-03-10T21:05:42.097Z,19.92
2023-03-10T21:08:11.430Z,19.10
2023-03-10T21:10:42.047Z,18.05
2023-03-10T21:13:11.604Z,18.97
2023-03-10T21:15:41.881Z,18.70
2023-03-10T21:18:12.820Z,20.23
2023-03-10T21:20:43.072Z,16.65
2023-03-10T21:23:12.705Z,21.20
2023-03-10T21:25:42.930Z,20.65
2023-03-10T21:28:12.237Z,23.83
2023-03-10T21:30:42.468Z,25.27
2023-03-10T21:33:13.298Z,28.98
2023-03-10T21:35:43.766Z,23.92
2023-03-10T21:38:13.241Z,31.52
2023-03-10T21:40:43.293Z,41.20
2023-03-10T21:43:13.250Z,23.65
2023-03-10T21:45:42.936Z,25.58
2023-03-10T21:48:14.438Z,26.10
2023-03-10T21:50:44.142Z,23.77
2023-03-10T21:53:14.760Z,32.65
2023-03-10T21:58:15.098Z,23.48
2023-03-10T22:00:45.150Z,25.27
2023-03-10T22:03:16.000Z,20.50
2023-03-10T22:05:46.572Z,23.27
2023-03-10T22:08:16.119Z,26.47
2023-03-10T22:10:45.893Z,39.88
2023-03-10T22:13:15.422Z,31.65
2023-03-10T22:15:45.157Z,30.67
2023-03-10T22:18:16.583Z,23.45
2023-03-10T22:20:46.295Z,25.13
2023-03-10T22:23:15.742Z,25.75
2023-03-10T22:25:45.568Z,26.95
2023-03-10T22:28:15.150Z,25.10
2023-03-10T22:30:45.063Z,22.23
2023-03-10T22:33:16.532Z,22.90
2023-03-10T22:35:52.308Z,21.80
2023-03-10T22:38:22.526Z,26.75
2023-03-10T22:40:52.762Z,19.00
2023-03-10T22:43:22.203Z,22.02
2023-03-10T22:45:51.867Z,19.95
2023-03-10T22:48:23.476Z,20.38
2023-03-10T22:50:53.296Z,17.60
2023-03-10T22:53:22.785Z,19.55
2023-03-10T22:55:52.486Z,23.48
2023-03-10T22:58:21.823Z,20.25
2023-03-10T23:00:51.887Z,17.27
2023-03-10T23:03:22.847Z,16.55
2023-03-10T23:05:52.886Z,70.03
2023-03-10T23:08:22.419Z,18.20
2023-03-10T23:10:52.453Z,21.20
2023-03-10T23:13:22.164Z,22.98
2023-03-10T23:15:52.310Z,18.90
2023-03-10T23:18:23.222Z,18.17
2023-03-10T23:20:54.698Z,16.85
2023-03-10T23:23:24.262Z,15.43
2023-03-10T23:25:53.993Z,40.20
2023-03-10T23:28:23.474Z,20.67
2023-03-10T23:30:54.704Z,19.17
2023-03-10T23:33:26.195Z,20.10
2023-03-10T23:35:55.932Z,15.18
2023-03-10T23:38:27.252Z,19.77
2023-03-10T23:40:57.193Z,18.13
2023-03-10T23:43:26.568Z,18.38
2023-03-10T23:45:56.308Z,17.27
2023-03-10T23:48:27.169Z,20.33
2023-03-10T23:50:56.973Z,19.35
2023-03-10T23:53:28.885Z,19.00
2023-03-10T23:56:00.355Z,21.02
2023-03-10T23:58:30.158Z,20.02
